Terminal Aerodrome Forecast
Issued by NWS

Home | Current Version | Previous Version | Text Only | Print | Product List | Glossary On
Versions: 1 2 3 4 5 6 7 8 9 10 11 12 13 14
000
FTUS43 KMQT 040311 AAB
TAFSAW
TAF AMD
KSAW 040311Z 0403/0424 36016KT P6SM BKN035
     FM040700 36012KT P6SM VCSH OVC020
     FM041200 36014G20KT P6SM -SHRASN OVC010
     FM041400 36015G21KT P6SM VCSH OVC015
     FM041700 36015G23KT P6SM OVC025
     FM042200 36014G20KT P6SM SCT090=

USA.gov is the U.S. government's official web portal to all federal, state and local government web resources and services.